Athelstane, WI

6:21 PM CDT on September 19, 2014 (GMT -0500)
Menominee-Marinette Twin County | Change Station
CLOSE
Current Station
Airport
Location: Menominee,
Elevation: 627 ft
Nearby Weather Stations

Elev 627 ft 45.13 °N, 87.64 °W | Updated 6 minutes ago

Partly Cloudy
Partly Cloudy
64 °F
Feels Like 64 °F
N
14
Wind Variable Wind from SSW
Gusts 26 mph

Today
High -- | Low -- °F
--% Chance of Precip.
Yesterday
High -- | Low -- °F
Precip. -- in
6:36 AM 6:56 PM
Waning Crescent, 16% visible
Pressure 29.80 in
Visibility 10.0 miles
Clouds Clear
Dew Point 54 °F
Humidity 68%
Rainfall 0.00 in
Snow Depth Not available.
UV 0 out of 12
Pollen 4.50 out of 12
Air Quality Not available.
Flu Activity Not available.
METAR KMNM 192315Z AUTO 20012G23KT 10SM CLR 18/12 A2980 RMK AO1

More Conditions Fewer Conditions

Pressure 29.80 in
Visibility 10.0 miles
Clouds Clear
Dew Point 54 °F
Humidity 68%
Rainfall 0.00 in
Snow Depth Not available.
UV 0 out of 12
Pollen 4.50 out of 12
Air Quality Not available.
Flu Activity Not available.
METAR KMNM 192315Z AUTO 20012G23KT 10SM CLR 18/12 A2980 RMK AO1

More Conditions Fewer Conditions

10-Day Weather Forecast

Almanac

Astronomy

Sep. 19, 2014 Rise Set
Actual Time 6:36 AM CDT 6:56 PM CDT
Civil Twilight 6:06 AM CDT 7:25 PM CDT
Nautical Twilight 5:31 AM CDT 8:00 PM CDT
Astronomical Twilight 4:55 AM CDT 8:36 PM CDT
Moon 2:11 AM CDT 4:33 PM CDT
Length of Visible Light 13h 19m
Length of Day
12h 19m
Tomorrow will be 3m 9s shorter.
Waning Crescent, 16% of the Moon is Illuminated
Today
Waning Crescent
Sep 24
New
Oct 1
First Quarter
Oct 8
Full
Oct 15
Last Quarter

Today's Extremes

State Highs State Lows

Community

WunderPhotos

Upload Photos

1,754,724 photos uploaded!

Nearby

Snow Depth

Station Depth Elevation
No new snow has been reported.

Earthquake Activity

City Distance Mag. Time & Date
No recent earthquake activity has been reported nearby.
Minimum magnitude displayed is 2.5.

Coastal Water Temperatures

Place Temperature
No Stations Reporting

Nearby Weather Stations